Time;durP1;ratioP1;P1;durP2;ratioP2;P2;SDS_P1;SDS_P2;PMS_P1;PMS_P2;Temp;Humidity;BMP_temperature;BMP_pressure;BME280_temperature;BME280_humidity;BME280_pressure;Samples;Min_cycle;Max_cycle;Signal;HPM_P1;HPM_P2
2023/08/03 00:00:32;;;;;;;16.90;3.67;;;;;;;;;;5096315;28;20054;-77
2023/08/03 00:02:58;;;;;;;16.92;3.60;;;;;;;;;;5096798;28;20028;-77
2023/08/03 00:05:23;;;;;;;10.52;3.78;;;;;;;;;;5114973;28;20031;-77
2023/08/03 00:07:49;;;;;;;7.85;3.47;;;;;;;;;;5096794;28;20065;-76
2023/08/03 00:10:18;;;;;;;12.23;4.25;;;;;;;;;;5096884;28;20020;-77
2023/08/03 00:12:44;;;;;;;15.05;4.32;;;;;;;;;;5096688;28;20031;-76
2023/08/03 00:15:13;;;;;;;13.43;4.38;;;;;;;;;;5096078;28;20058;-77
2023/08/03 00:17:39;;;;;;;16.25;4.35;;;;;;;;;;5114787;28;20024;-76
2023/08/03 00:20:05;;;;;;;14.02;5.22;;;;;;;;;;5114634;28;20019;-77
2023/08/03 00:22:31;;;;;;;16.45;3.53;;;;;;;;;;5096793;28;20035;-76
2023/08/03 00:24:58;;;;;;;11.02;4.57;;;;;;;;;;5114744;28;20023;-77
2023/08/03 00:27:23;;;;;;;13.25;4.13;;;;;;;;;;5114329;28;20023;-76
2023/08/03 00:29:49;;;;;;;18.20;4.45;;;;;;;;;;5113746;28;20097;-76
2023/08/03 00:32:14;;;;;;;15.13;4.38;;;;;;;;;;5114440;28;20016;-76
2023/08/03 00:34:39;;;;;;;22.45;5.05;;;;;;;;;;5096323;28;20102;-76
2023/08/03 00:37:07;;;;;;;13.23;3.90;;;;;;;;;;5096482;28;20429;-76
2023/08/03 00:39:33;;;;;;;7.20;3.63;;;;;;;;;;5078701;28;20025;-76
2023/08/03 00:41:58;;;;;;;12.65;4.38;;;;;;;;;;5096245;28;20028;-76
2023/08/03 00:44:23;;;;;;;9.80;4.25;;;;;;;;;;5096110;28;20370;-76
2023/08/03 00:46:49;;;;;;;10.95;3.67;;;;;;;;;;5096003;28;20546;-76
2023/08/03 00:49:14;;;;;;;15.05;4.88;;;;;;;;;;5079280;28;20485;-76
2023/08/03 00:51:39;;;;;;;15.85;5.00;;;;;;;;;;5113846;28;20020;-76
2023/08/03 00:54:07;;;;;;;9.60;4.32;;;;;;;;;;5096331;28;20392;-76
2023/08/03 00:56:36;;;;;;;10.90;5.07;;;;;;;;;;5083023;22;20039;-76
2023/08/03 00:59:05;;;;;;;13.70;4.50;;;;;;;;;;5093771;28;20089;-76
2023/08/03 01:01:30;;;;;;;10.45;4.03;;;;;;;;;;5075451;28;20103;-76
2023/08/03 01:03:56;;;;;;;12.93;4.50;;;;;;;;;;5093825;28;20110;-76
2023/08/03 01:06:22;;;;;;;12.68;5.07;;;;;;;;;;5075614;28;20389;-77
2023/08/03 01:08:47;;;;;;;9.18;4.28;;;;;;;;;;5059011;28;20084;-76
2023/08/03 01:11:12;;;;;;;15.65;4.72;;;;;;;;;;5075368;28;20116;-76
2023/08/03 01:13:38;;;;;;;13.82;5.82;;;;;;;;;;5075689;28;20089;-76
2023/08/03 01:16:03;;;;;;;15.38;5.07;;;;;;;;;;5058643;28;20031;-76
2023/08/03 01:18:29;;;;;;;17.75;4.68;;;;;;;;;;5075697;28;20024;-77
2023/08/03 01:20:55;;;;;;;11.80;4.55;;;;;;;;;;5075478;28;20068;-76
2023/08/03 01:23:20;;;;;;;11.27;4.25;;;;;;;;;;5075423;28;20068;-77
2023/08/03 01:25:45;;;;;;;12.57;4.07;;;;;;;;;;5075441;28;20028;-76
2023/08/03 01:28:10;;;;;;;13.30;4.03;;;;;;;;;;5075545;28;20101;-76
2023/08/03 01:30:36;;;;;;;11.05;4.15;;;;;;;;;;5093755;28;20412;-76
2023/08/03 01:33:01;;;;;;;12.50;4.85;;;;;;;;;;5075297;28;20028;-77
2023/08/03 01:35:26;;;;;;;12.00;3.83;;;;;;;;;;5075700;28;20031;-76
2023/08/03 01:37:52;;;;;;;13.20;3.85;;;;;;;;;;5075535;28;20571;-76
2023/08/03 01:40:18;;;;;;;13.27;3.80;;;;;;;;;;5075031;28;20377;-77
2023/08/03 01:42:43;;;;;;;11.23;4.20;;;;;;;;;;5077711;28;20114;-77
2023/08/03 01:45:09;;;;;;;9.63;3.90;;;;;;;;;;5078968;28;20028;-76
2023/08/03 01:47:34;;;;;;;11.60;3.70;;;;;;;;;;5078944;28;20080;-76
2023/08/03 01:49:59;;;;;;;12.65;4.18;;;;;;;;;;5078923;28;20066;-76
2023/08/03 01:52:25;;;;;;;12.07;3.25;;;;;;;;;;5078742;28;20448;-77
2023/08/03 01:54:50;;;;;;;13.05;4.10;;;;;;;;;;5097079;28;20055;-76
2023/08/03 01:57:17;;;;;;;14.93;3.88;;;;;;;;;;5095446;28;20031;-77
2023/08/03 01:59:43;;;;;;;11.43;4.30;;;;;;;;;;5079023;28;20024;-76
2023/08/03 02:02:08;;;;;;;12.23;4.45;;;;;;;;;;5078710;28;20028;-77
2023/08/03 02:04:34;;;;;;;18.38;4.53;;;;;;;;;;5096594;28;20043;-77
2023/08/03 02:07:07;;;;;;;17.92;3.75;;;;;;;;;;5096615;28;20076;-77
2023/08/03 02:09:36;;;;;;;11.80;3.75;;;;;;;;;;5073624;28;20077;-77
2023/08/03 02:12:02;;;;;;;14.27;3.92;;;;;;;;;;5082140;28;20072;-77
2023/08/03 02:14:27;;;;;;;11.50;4.97;;;;;;;;;;5114415;28;20038;-77
2023/08/03 02:16:52;;;;;;;9.32;3.78;;;;;;;;;;5108858;28;20020;-76
2023/08/03 02:19:18;;;;;;;8.23;3.38;;;;;;;;;;5080744;28;20032;-76
2023/08/03 02:21:43;;;;;;;9.00;3.80;;;;;;;;;;5116119;28;20035;-77
2023/08/03 02:24:08;;;;;;;9.60;3.13;;;;;;;;;;5096035;28;20071;-76
2023/08/03 02:26:33;;;;;;;7.43;2.95;;;;;;;;;;5060524;28;20025;-77
2023/08/03 02:28:59;;;;;;;7.88;3.10;;;;;;;;;;5076255;28;20021;-77
2023/08/03 02:31:24;;;;;;;8.90;2.92;;;;;;;;;;5076015;28;20549;-77
2023/08/03 02:33:50;;;;;;;9.10;2.92;;;;;;;;;;5075946;28;20017;-76
2023/08/03 02:36:15;;;;;;;7.20;2.72;;;;;;;;;;5075857;28;20406;-76
2023/08/03 02:38:40;;;;;;;7.53;3.10;;;;;;;;;;5075856;28;20032;-77
2023/08/03 02:41:05;;;;;;;6.85;2.85;;;;;;;;;;5094934;28;20103;-77
2023/08/03 02:43:33;;;;;;;7.85;2.85;;;;;;;;;;5077238;28;20482;-77
2023/08/03 02:45:59;;;;;;;9.05;2.97;;;;;;;;;;5078276;28;20052;-76
2023/08/03 02:48:24;;;;;;;7.57;3.28;;;;;;;;;;5096428;28;20110;-76
2023/08/03 02:50:49;;;;;;;8.18;3.03;;;;;;;;;;5096124;28;20016;-76
2023/08/03 02:53:15;;;;;;;6.18;2.95;;;;;;;;;;5077820;28;20028;-77
2023/08/03 02:55:40;;;;;;;9.57;3.05;;;;;;;;;;5076336;28;20023;-77
2023/08/03 02:58:05;;;;;;;10.02;3.45;;;;;;;;;;5098204;28;20023;-77
2023/08/03 03:00:30;;;;;;;8.73;3.72;;;;;;;;;;5116251;28;20076;-76
2023/08/03 03:02:56;;;;;;;8.02;2.83;;;;;;;;;;5080948;28;20119;-77
2023/08/03 03:05:21;;;;;;;15.82;2.97;;;;;;;;;;5097354;28;20101;-77
2023/08/03 03:07:46;;;;;;;7.30;2.55;;;;;;;;;;5115798;28;20370;-76
2023/08/03 03:10:13;;;;;;;5.80;2.83;;;;;;;;;;5098040;28;20016;-77
2023/08/03 03:12:39;;;;;;;11.55;2.92;;;;;;;;;;5097803;28;20051;-77
2023/08/03 03:15:05;;;;;;;7.40;3.15;;;;;;;;;;5088549;28;20024;-77
2023/08/03 03:17:30;;;;;;;9.20;3.30;;;;;;;;;;5077314;28;20107;-77
2023/08/03 03:19:55;;;;;;;8.65;3.08;;;;;;;;;;5095968;28;20439;-76
2023/08/03 03:22:20;;;;;;;6.22;2.75;;;;;;;;;;5115700;28;20027;-77
2023/08/03 03:24:46;;;;;;;4.20;2.83;;;;;;;;;;5115735;28;20419;-77
2023/08/03 03:27:11;;;;;;;11.52;3.00;;;;;;;;;;5097355;28;20031;-77
2023/08/03 03:29:36;;;;;;;8.52;3.05;;;;;;;;;;5096911;28;20023;-77
2023/08/03 03:32:01;;;;;;;8.07;2.92;;;;;;;;;;5097610;28;20019;-77
2023/08/03 03:34:27;;;;;;;6.60;2.35;;;;;;;;;;5115965;28;20106;-77
2023/08/03 03:36:52;;;;;;;6.20;2.83;;;;;;;;;;5097877;28;20504;-77
2023/08/03 03:39:17;;;;;;;10.52;3.13;;;;;;;;;;5096804;28;20098;-76
2023/08/03 03:41:43;;;;;;;9.43;3.67;;;;;;;;;;5097864;28;20481;-77
2023/08/03 03:44:08;;;;;;;8.63;3.45;;;;;;;;;;5097322;28;20103;-77
2023/08/03 03:46:33;;;;;;;6.25;3.45;;;;;;;;;;5097547;28;20389;-77
2023/08/03 03:48:58;;;;;;;8.43;3.85;;;;;;;;;;5097275;28;20031;-77
2023/08/03 03:51:24;;;;;;;8.63;4.68;;;;;;;;;;5103631;28;20111;-77
2023/08/03 03:53:49;;;;;;;12.15;5.18;;;;;;;;;;5060199;28;20028;-76
2023/08/03 03:56:14;;;;;;;13.10;5.53;;;;;;;;;;5076010;28;20028;-77
2023/08/03 03:58:39;;;;;;;9.55;5.40;;;;;;;;;;5076531;28;20036;-77
2023/08/03 04:01:05;;;;;;;13.60;5.63;;;;;;;;;;5076102;28;20055;-77
2023/08/03 04:03:30;;;;;;;11.55;5.38;;;;;;;;;;5094789;28;20020;-77
2023/08/03 04:05:55;;;;;;;11.82;5.38;;;;;;;;;;5076256;28;20027;-77
2023/08/03 04:08:21;;;;;;;15.18;5.50;;;;;;;;;;5076535;28;20477;-77
2023/08/03 04:10:46;;;;;;;9.05;5.72;;;;;;;;;;5075497;28;20058;-77
2023/08/03 04:13:11;;;;;;;18.27;5.65;;;;;;;;;;5073041;28;20059;-77
2023/08/03 04:15:36;;;;;;;15.77;5.63;;;;;;;;;;5056432;28;20367;-77
2023/08/03 04:18:02;;;;;;;7.88;5.03;;;;;;;;;;5056093;28;20024;-77
2023/08/03 04:20:27;;;;;;;14.95;5.45;;;;;;;;;;5074370;28;20107;-77
2023/08/03 04:22:52;;;;;;;11.10;6.38;;;;;;;;;;5086995;28;20023;-77
2023/08/03 04:25:18;;;;;;;13.27;5.30;;;;;;;;;;5096043;28;20055;-77
2023/08/03 04:27:43;;;;;;;12.52;5.13;;;;;;;;;;5115147;28;20024;-77
2023/08/03 04:30:11;;;;;;;8.32;5.00;;;;;;;;;;5079921;28;20019;-77
2023/08/03 04:32:36;;;;;;;13.95;6.13;;;;;;;;;;5110495;28;20020;-77
2023/08/03 04:35:01;;;;;;;13.23;5.00;;;;;;;;;;5076435;28;20389;-76
2023/08/03 04:37:27;;;;;;;16.38;5.78;;;;;;;;;;5093724;28;20020;-77
2023/08/03 04:39:52;;;;;;;8.05;5.57;;;;;;;;;;5075993;28;20020;-76
2023/08/03 04:42:17;;;;;;;12.50;5.72;;;;;;;;;;5075878;28;20054;-77
2023/08/03 04:44:45;;;;;;;15.43;5.80;;;;;;;;;;5094286;28;20039;-76
2023/08/03 04:47:10;;;;;;;9.88;5.65;;;;;;;;;;5093349;28;20024;-77
2023/08/03 04:49:36;;;;;;;9.80;5.03;;;;;;;;;;5093779;28;20031;-77
2023/08/03 04:52:01;;;;;;;11.07;5.20;;;;;;;;;;5093942;28;20016;-77
2023/08/03 04:54:26;;;;;;;9.32;5.18;;;;;;;;;;5075604;28;20016;-77
2023/08/03 04:56:51;;;;;;;9.65;5.60;;;;;;;;;;5088247;22;20410;-77
2023/08/03 04:59:17;;;;;;;12.88;6.57;;;;;;;;;;5054999;28;20068;-77
2023/08/03 05:01:42;;;;;;;13.07;6.22;;;;;;;;;;5068276;28;20012;-76
2023/08/03 05:04:08;;;;;;;12.98;6.18;;;;;;;;;;5059041;28;20028;-76
2023/08/03 05:06:33;;;;;;;12.70;6.28;;;;;;;;;;5086540;28;20034;-76
2023/08/03 05:08:58;;;;;;;10.27;4.72;;;;;;;;;;5079045;28;20471;-77
2023/08/03 05:11:25;;;;;;;8.88;5.85;;;;;;;;;;5113762;28;20028;-77
2023/08/03 05:13:50;;;;;;;15.43;7.25;;;;;;;;;;5096362;28;20099;-77
2023/08/03 05:16:22;;;;;;;15.82;6.88;;;;;;;;;;5097537;28;20103;-77
2023/08/03 05:18:47;;;;;;;14.90;6.55;;;;;;;;;;5083678;28;20344;-77
2023/08/03 05:21:12;;;;;;;14.60;6.63;;;;;;;;;;5099583;28;20107;-76
2023/08/03 05:23:37;;;;;;;11.63;7.28;;;;;;;;;;5099862;28;20031;-76
2023/08/03 05:26:03;;;;;;;12.30;6.57;;;;;;;;;;5100001;28;20473;-77
2023/08/03 05:28:28;;;;;;;12.88;6.65;;;;;;;;;;5099990;28;20027;-77
2023/08/03 05:30:53;;;;;;;11.75;6.63;;;;;;;;;;5118527;28;20023;-76
2023/08/03 05:33:22;;;;;;;13.88;6.63;;;;;;;;;;5117658;28;20023;-77
2023/08/03 05:35:47;;;;;;;13.43;7.03;;;;;;;;;;5082968;28;20107;-76
2023/08/03 05:38:14;;;;;;;19.38;7.97;;;;;;;;;;5099517;28;20024;-77
2023/08/03 05:40:40;;;;;;;12.30;6.80;;;;;;;;;;5099517;28;20048;-76
2023/08/03 05:43:13;;;;;;;12.77;7.45;;;;;;;;;;5099443;28;20106;-76
2023/08/03 05:45:48;;;;;;;22.35;8.07;;;;;;;;;;5099147;28;20030;-76
2023/08/03 05:48:20;;;;;;;18.60;7.60;;;;;;;;;;5099418;28;20386;-76
2023/08/03 05:50:51;;;;;;;13.80;7.53;;;;;;;;;;5099378;28;20019;-77
2023/08/03 05:53:17;;;;;;;;;;;;;;;;;;5082193;28;20026;-77
2023/08/03 05:55:43;;;;;;;12.70;7.63;;;;;;;;;;5099253;28;19915;-76
2023/08/03 05:58:10;;;;;;;14.45;8.82;;;;;;;;;;5099073;28;20023;-76
2023/08/03 06:00:37;;;;;;;10.98;7.53;;;;;;;;;;5099060;28;20090;-76
2023/08/03 06:03:03;;;;;;;12.55;8.45;;;;;;;;;;5099086;28;20063;-77
2023/08/03 06:05:47;;;;;;;13.27;8.73;;;;;;;;;;5116799;28;20073;-76
2023/08/03 06:08:23;;;;;;;16.08;9.07;;;;;;;;;;5099226;28;20023;-77
2023/08/03 06:10:57;;;;;;;16.35;8.15;;;;;;;;;;5099293;28;20020;-76
2023/08/03 06:13:34;;;;;;;12.30;8.40;;;;;;;;;;5098972;28;20020;-76
2023/08/03 06:16:04;;;;;;;12.27;7.68;;;;;;;;;;5117051;28;20024;-76
2023/08/03 06:18:31;;;;;;;11.80;8.73;;;;;;;;;;5081321;28;20085;-77
2023/08/03 06:20:56;;;;;;;13.48;8.05;;;;;;;;;;5098910;28;20019;-76
2023/08/03 06:23:24;;;;;;;15.40;8.25;;;;;;;;;;5098634;28;20030;-76
2023/08/03 06:25:51;;;;;;;13.85;8.25;;;;;;;;;;5116132;28;20030;-76
2023/08/03 06:28:21;;;;;;;12.85;7.82;;;;;;;;;;5098046;28;20110;-76
2023/08/03 06:30:47;;;;;;;14.18;8.32;;;;;;;;;;5098635;28;20431;-76
2023/08/03 06:33:15;;;;;;;15.35;8.23;;;;;;;;;;5116939;28;20024;-76
2023/08/03 06:35:42;;;;;;;13.43;7.95;;;;;;;;;;5097767;28;20149;-76
2023/08/03 06:38:13;;;;;;;14.88;9.13;;;;;;;;;;5098404;28;20072;-76
2023/08/03 06:40:42;;;;;;;13.32;7.35;;;;;;;;;;5098413;28;20016;-77
2023/08/03 06:43:11;;;;;;;21.23;9.13;;;;;;;;;;5098364;28;20100;-77
2023/08/03 06:45:37;;;;;;;11.45;7.82;;;;;;;;;;5098412;28;20019;-77
2023/08/03 06:48:03;;;;;;;13.48;8.38;;;;;;;;;;5080876;28;20444;-77
2023/08/03 06:50:29;;;;;;;13.80;9.20;;;;;;;;;;5098583;28;20020;-77
2023/08/03 06:52:56;;;;;;;16.85;8.93;;;;;;;;;;5098920;28;20037;-76
2023/08/03 06:57:50;;;;;;;13.75;8.40;;;;;;;;;;5095207;28;20056;-77
2023/08/03 07:00:16;;;;;;;19.98;11.27;;;;;;;;;;5077366;28;20511;-77
2023/08/03 07:02:42;;;;;;;13.40;7.53;;;;;;;;;;5077891;28;20028;-77
2023/08/03 07:05:07;;;;;;;14.82;9.02;;;;;;;;;;5077822;28;20028;-77
2023/08/03 07:07:33;;;;;;;14.90;9.65;;;;;;;;;;5057358;28;20123;-76
2023/08/03 07:10:01;;;;;;;13.43;8.32;;;;;;;;;;5057639;28;20028;-76
2023/08/03 07:12:27;;;;;;;13.93;8.00;;;;;;;;;;5057440;28;20032;-76
2023/08/03 07:14:52;;;;;;;13.38;8.32;;;;;;;;;;5075393;28;20028;-75
2023/08/03 07:17:17;;;;;;;11.60;6.65;;;;;;;;;;5056976;28;20025;-74
2023/08/03 07:19:43;;;;;;;15.10;7.75;;;;;;;;;;5057397;28;20486;-74
2023/08/03 07:22:09;;;;;;;11.93;8.15;;;;;;;;;;5056853;28;20024;-74
2023/08/03 07:24:34;;;;;;;14.38;7.90;;;;;;;;;;5074625;28;20024;-74
2023/08/03 07:27:02;;;;;;;12.75;7.90;;;;;;;;;;5074784;28;20460;-74
2023/08/03 07:29:28;;;;;;;10.57;7.20;;;;;;;;;;5040286;28;20031;-74
2023/08/03 07:31:54;;;;;;;11.63;6.70;;;;;;;;;;5056904;28;20394;-73
2023/08/03 07:34:19;;;;;;;10.68;6.60;;;;;;;;;;5056776;28;20024;-73
2023/08/03 07:36:46;;;;;;;10.77;6.22;;;;;;;;;;5074441;28;20039;-73
2023/08/03 07:39:11;;;;;;;10.38;6.07;;;;;;;;;;5056719;28;20123;-73
2023/08/03 07:41:36;;;;;;;8.80;5.10;;;;;;;;;;5074214;28;20522;-72
2023/08/03 07:44:02;;;;;;;8.93;5.40;;;;;;;;;;5073978;28;20066;-72
2023/08/03 07:46:28;;;;;;;6.07;4.30;;;;;;;;;;5074262;28;20017;-73
2023/08/03 07:48:53;;;;;;;9.10;5.38;;;;;;;;;;5074423;28;20035;-74
2023/08/03 07:51:18;;;;;;;9.18;5.50;;;;;;;;;;5056554;28;20030;-73
2023/08/03 07:53:44;;;;;;;6.68;5.57;;;;;;;;;;5074270;28;20020;-73
2023/08/03 07:56:20;;;;;;;7.47;5.70;;;;;;;;;;5056092;28;20033;-73
2023/08/03 07:58:47;;;;;;;10.73;5.25;;;;;;;;;;5039608;28;20048;-75
2023/08/03 08:01:12;;;;;;;7.28;4.53;;;;;;;;;;5056481;28;20024;-74
2023/08/03 08:03:38;;;;;;;7.70;5.30;;;;;;;;;;5056251;28;20072;-73
2023/08/03 08:06:10;;;;;;;8.10;4.95;;;;;;;;;;5056263;28;20038;-73
2023/08/03 08:08:35;;;;;;;8.18;5.30;;;;;;;;;;5055998;28;20086;-73
2023/08/03 08:11:01;;;;;;;11.30;5.13;;;;;;;;;;5048679;28;20431;-74
2023/08/03 08:13:27;;;;;;;6.95;4.50;;;;;;;;;;5049792;28;20048;-75
2023/08/03 08:16:02;;;;;;;7.45;4.63;;;;;;;;;;5049195;28;20032;-75
2023/08/03 08:18:29;;;;;;;15.85;5.30;;;;;;;;;;5056288;28;20074;-75
2023/08/03 08:21:01;;;;;;;6.75;5.07;;;;;;;;;;5057539;28;20447;-76
2023/08/03 08:23:27;;;;;;;7.70;5.40;;;;;;;;;;5076118;28;20488;-76
2023/08/03 08:25:52;;;;;;;6.95;4.93;;;;;;;;;;5076057;28;20024;-75
2023/08/03 08:28:18;;;;;;;5.03;3.83;;;;;;;;;;5093501;28;20119;-74
2023/08/03 08:30:46;;;;;;;3.80;3.10;;;;;;;;;;5076273;28;20073;-75
2023/08/03 08:33:14;;;;;;;3.13;2.63;;;;;;;;;;5059646;28;20020;-75
2023/08/03 08:35:39;;;;;;;4.22;2.58;;;;;;;;;;5075952;28;20020;-74
2023/08/03 08:38:05;;;;;;;7.03;2.97;;;;;;;;;;5093553;28;20035;-74
2023/08/03 08:40:34;;;;;;;3.20;2.88;;;;;;;;;;5048877;28;20017;-74
2023/08/03 08:42:59;;;;;;;6.30;3.42;;;;;;;;;;5053901;28;20064;-74
2023/08/03 08:45:25;;;;;;;3.92;2.80;;;;;;;;;;5035952;28;20025;-74
2023/08/03 08:47:50;;;;;;;5.18;2.58;;;;;;;;;;5052598;28;20598;-74
2023/08/03 08:50:16;;;;;;;2.83;2.40;;;;;;;;;;5052639;28;20482;-75
2023/08/03 08:52:42;;;;;;;4.40;2.75;;;;;;;;;;5056349;28;20021;-74
2023/08/03 08:55:14;;;;;;;4.25;2.67;;;;;;;;;;5057171;28;20394;-74
2023/08/03 08:57:40;;;;;;;8.15;3.60;;;;;;;;;;5122269;22;20233;-74
2023/08/03 09:00:06;;;;;;;4.10;2.85;;;;;;;;;;5099946;28;20027;-74
2023/08/03 09:02:32;;;;;;;7.43;3.03;;;;;;;;;;5118251;28;20110;-74
2023/08/03 09:05:07;;;;;;;2.53;2.10;;;;;;;;;;5099390;28;20511;-73
2023/08/03 09:07:32;;;;;;;4.65;2.58;;;;;;;;;;5099496;28;20469;-74
2023/08/03 09:10:01;;;;;;;3.95;2.30;;;;;;;;;;5099791;28;20027;-73
2023/08/03 09:12:27;;;;;;;2.85;2.10;;;;;;;;;;5116782;28;20361;-74
2023/08/03 09:14:52;;;;;;;3.33;2.22;;;;;;;;;;5099481;28;20020;-73
2023/08/03 09:17:19;;;;;;;2.95;2.33;;;;;;;;;;5099047;28;20024;-73
2023/08/03 09:19:45;;;;;;;3.92;2.03;;;;;;;;;;5116273;28;20401;-73
2023/08/03 09:22:11;;;;;;;2.88;1.92;;;;;;;;;;5099629;28;20039;-74
2023/08/03 09:24:37;;;;;;;3.95;1.95;;;;;;;;;;5097529;28;20067;-73
2023/08/03 09:27:02;;;;;;;5.00;2.30;;;;;;;;;;5117631;28;20028;-73
2023/08/03 09:29:30;;;;;;;2.50;1.67;;;;;;;;;;5116527;28;20045;-73
2023/08/03 09:32:06;;;;;;;2.92;1.92;;;;;;;;;;5095979;28;20026;-73
2023/08/03 09:34:36;;;;;;;7.35;2.03;;;;;;;;;;5099007;28;20069;-73
2023/08/03 09:37:03;;;;;;;3.10;1.92;;;;;;;;;;5095359;28;20401;-73
2023/08/03 09:39:32;;;;;;;4.78;2.22;;;;;;;;;;5101398;28;20027;-73
2023/08/03 09:41:59;;;;;;;2.58;1.88;;;;;;;;;;5099498;28;20019;-73
2023/08/03 09:44:26;;;;;;;2.00;1.77;;;;;;;;;;5097459;28;20054;-73
2023/08/03 09:46:51;;;;;;;2.92;1.90;;;;;;;;;;5080576;28;20523;-73
2023/08/03 09:49:16;;;;;;;3.25;1.95;;;;;;;;;;5078652;28;20016;-73
2023/08/03 09:51:44;;;;;;;4.07;2.03;;;;;;;;;;5096996;28;20016;-72
2023/08/03 09:54:21;;;;;;;4.05;2.03;;;;;;;;;;5078388;28;20055;-73
2023/08/03 09:56:52;;;;;;;3.58;2.03;;;;;;;;;;5063350;28;20043;-73
2023/08/03 09:59:19;;;;;;;;;;;;;;;;;;5079687;28;20027;-73
2023/08/03 10:01:45;;;;;;;4.95;2.00;;;;;;;;;;5077772;28;19958;-73
2023/08/03 10:04:13;;;;;;;2.80;2.30;;;;;;;;;;5095446;28;20409;-72
2023/08/03 10:06:42;;;;;;;3.25;2.17;;;;;;;;;;5081256;28;20069;-72
2023/08/03 10:09:09;;;;;;;3.30;2.50;;;;;;;;;;5098503;28;20030;-72
2023/08/03 10:11:43;;;;;;;3.15;2.65;;;;;;;;;;5097904;28;20031;-72
2023/08/03 10:14:09;;;;;;;3.47;2.60;;;;;;;;;;5081966;28;20023;-72
2023/08/03 10:16:35;;;;;;;3.85;2.60;;;;;;;;;;5078001;28;20023;-72
2023/08/03 10:19:02;;;;;;;3.10;2.60;;;;;;;;;;5109488;22;20126;-75
2023/08/03 10:21:28;;;;;;;4.75;2.58;;;;;;;;;;5076582;28;20100;-75
2023/08/03 10:24:18;;;;;;;5.32;2.22;;;;;;;;;;5076980;28;20055;-75
2023/08/03 10:26:43;;;;;;;;;;;;;;;;;;5077789;28;20032;-75
2023/08/03 10:29:09;;;;;;;6.93;1.98;;;;;;;;;;5095124;28;20285;-75
2023/08/03 10:31:54;;;;;;;8.88;1.73;;;;;;;;;;5077231;28;20035;-75
2023/08/03 10:34:27;;;;;;;6.10;2.20;;;;;;;;;;5076372;28;20019;-75
2023/08/03 10:36:55;;;;;;;6.82;1.98;;;;;;;;;;5076984;28;20057;-75
2023/08/03 10:39:48;;;;;;;4.82;1.83;;;;;;;;;;5076798;28;20027;-75
2023/08/03 10:42:29;;;;;;;6.10;2.45;;;;;;;;;;5057136;28;20099;-75
2023/08/03 10:44:55;;;;;;;12.85;3.63;;;;;;;;;;5057556;28;20401;-74
2023/08/03 10:47:21;;;;;;;4.80;1.77;;;;;;;;;;5074954;28;20489;-74
2023/08/03 10:49:48;;;;;;;9.32;3.00;;;;;;;;;;5094000;28;20035;-74
2023/08/03 10:52:28;;;;;;;6.28;1.80;;;;;;;;;;5062010;28;20095;-73
2023/08/03 10:54:55;;;;;;;7.40;2.20;;;;;;;;;;5056318;28;20016;-76
2023/08/03 10:57:24;;;;;;;8.27;2.28;;;;;;;;;;5055764;28;20113;-74
2023/08/03 10:59:52;;;;;;;4.05;1.67;;;;;;;;;;5074109;28;20047;-73
2023/08/03 11:02:33;;;;;;;4.13;1.85;;;;;;;;;;5070029;28;20031;-73
2023/08/03 11:05:06;;;;;;;6.68;1.88;;;;;;;;;;5093823;28;20024;-73
2023/08/03 11:07:44;;;;;;;11.05;3.13;;;;;;;;;;5076231;28;20063;-74
2023/08/03 11:10:12;;;;;;;9.43;2.35;;;;;;;;;;5076177;28;20085;-74
2023/08/03 11:12:40;;;;;;;11.18;2.83;;;;;;;;;;5075991;28;20027;-73
2023/08/03 11:15:07;;;;;;;13.93;2.92;;;;;;;;;;5058638;28;20028;-74
2023/08/03 11:17:34;;;;;;;10.15;3.03;;;;;;;;;;5093809;28;20027;-74
2023/08/03 11:20:03;;;;;;;7.97;2.50;;;;;;;;;;5091425;28;20028;-74
2023/08/03 11:22:28;;;;;;;7.80;2.65;;;;;;;;;;5076182;28;20516;-74
2023/08/03 11:24:55;;;;;;;9.95;2.72;;;;;;;;;;5093673;28;20028;-74
2023/08/03 11:27:21;;;;;;;6.50;2.30;;;;;;;;;;5060452;28;20052;-74
2023/08/03 11:29:50;;;;;;;7.03;2.65;;;;;;;;;;5072932;28;20028;-74
2023/08/03 11:32:32;;;;;;;5.93;2.70;;;;;;;;;;5055707;28;20550;-73
2023/08/03 11:35:02;;;;;;;6.07;2.28;;;;;;;;;;5055763;28;20125;-74
2023/08/03 11:37:29;;;;;;;6.50;2.35;;;;;;;;;;5082533;28;20059;-74
2023/08/03 11:39:54;;;;;;;6.75;2.90;;;;;;;;;;5075323;28;20027;-74
2023/08/03 11:42:19;;;;;;;4.88;2.40;;;;;;;;;;5075110;28;20024;-74
2023/08/03 11:44:45;;;;;;;10.85;2.67;;;;;;;;;;5074691;28;20048;-74
2023/08/03 11:47:10;;;;;;;9.55;3.03;;;;;;;;;;5055743;28;20024;-73
2023/08/03 11:49:35;;;;;;;9.02;2.63;;;;;;;;;;5056068;28;20474;-74
2023/08/03 11:52:01;;;;;;;9.95;2.25;;;;;;;;;;5074582;28;20107;-74
2023/08/03 11:54:32;;;;;;;7.45;2.40;;;;;;;;;;5054921;28;20021;-74
2023/08/03 11:59:41;;;;;;;10.05;2.45;;;;;;;;;;5077972;28;19914;-74
2023/08/03 12:02:06;;;;;;;5.97;2.47;;;;;;;;;;5070149;28;20020;-74
2023/08/03 12:04:32;;;;;;;6.22;2.10;;;;;;;;;;5075196;28;20027;-74
2023/08/03 12:06:57;;;;;;;7.72;2.30;;;;;;;;;;5074681;28;20035;-74
2023/08/03 12:09:25;;;;;;;7.93;2.42;;;;;;;;;;5075151;28;20166;-74
2023/08/03 12:11:51;;;;;;;9.65;3.35;;;;;;;;;;5092858;28;20020;-73
2023/08/03 12:14:17;;;;;;;6.22;2.30;;;;;;;;;;5053424;28;20119;-74
2023/08/03 12:16:43;;;;;;;11.32;3.20;;;;;;;;;;5056693;28;20086;-74
2023/08/03 12:19:08;;;;;;;5.97;2.38;;;;;;;;;;5054652;28;20571;-73
2023/08/03 12:21:35;;;;;;;8.98;2.42;;;;;;;;;;5075108;28;20028;-73
2023/08/03 12:24:01;;;;;;;4.63;2.10;;;;;;;;;;5075053;28;20031;-73
2023/08/03 12:26:26;;;;;;;6.28;2.53;;;;;;;;;;5066858;28;20016;-73
2023/08/03 12:28:51;;;;;;;8.90;2.50;;;;;;;;;;5086970;28;20020;-74
2023/08/03 12:31:17;;;;;;;8.00;2.78;;;;;;;;;;5093154;28;20020;-72
2023/08/03 12:33:42;;;;;;;5.85;2.13;;;;;;;;;;5074966;28;20085;-73
2023/08/03 12:36:07;;;;;;;7.70;2.80;;;;;;;;;;5092355;28;20477;-73
2023/08/03 12:38:32;;;;;;;11.60;2.95;;;;;;;;;;5074939;28;20052;-73
2023/08/03 12:40:58;;;;;;;9.25;2.30;;;;;;;;;;5092769;28;20035;-73
2023/08/03 12:43:23;;;;;;;11.95;2.80;;;;;;;;;;5075013;28;20024;-73
2023/08/03 12:45:48;;;;;;;11.35;2.50;;;;;;;;;;5092430;28;20481;-73
2023/08/03 12:48:14;;;;;;;11.40;2.47;;;;;;;;;;5074545;28;20473;-73
2023/08/03 12:50:39;;;;;;;6.05;2.33;;;;;;;;;;5092817;28;20031;-73
2023/08/03 12:53:04;;;;;;;7.25;2.20;;;;;;;;;;5091828;28;20054;-73
2023/08/03 12:55:29;;;;;;;6.10;2.33;;;;;;;;;;5074827;28;20024;-73
2023/08/03 12:57:55;;;;;;;10.02;2.53;;;;;;;;;;5092582;28;20024;-73
2023/08/03 13:00:23;;;;;;;7.50;3.05;;;;;;;;;;5092569;28;20027;-73
2023/08/03 13:02:48;;;;;;;10.73;3.03;;;;;;;;;;5092276;28;20107;-73
2023/08/03 13:05:13;;;;;;;8.20;2.60;;;;;;;;;;5057652;28;20110;-73
2023/08/03 13:07:38;;;;;;;5.05;2.58;;;;;;;;;;5083538;28;20086;-73
2023/08/03 13:10:04;;;;;;;6.45;2.72;;;;;;;;;;5072508;28;20032;-73
2023/08/03 13:12:29;;;;;;;9.45;2.85;;;;;;;;;;5071430;28;20017;-73
2023/08/03 13:14:55;;;;;;;7.22;2.55;;;;;;;;;;5080317;28;20024;-73
2023/08/03 13:17:20;;;;;;;9.50;3.13;;;;;;;;;;5092559;28;20040;-73
2023/08/03 13:19:45;;;;;;;9.32;3.15;;;;;;;;;;5090979;28;20022;-73
2023/08/03 13:22:10;;;;;;;8.63;2.78;;;;;;;;;;5092042;28;20028;-74
2023/08/03 13:24:36;;;;;;;6.40;2.90;;;;;;;;;;5092204;28;20028;-73
2023/08/03 13:27:12;;;;;;;6.93;3.13;;;;;;;;;;5074576;28;20016;-74
2023/08/03 13:29:37;;;;;;;6.88;2.95;;;;;;;;;;5074290;28;20161;-74
2023/08/03 13:32:02;;;;;;;6.90;2.20;;;;;;;;;;5091793;28;20572;-73
2023/08/03 13:34:28;;;;;;;10.27;3.00;;;;;;;;;;5074413;28;20020;-73
2023/08/03 13:36:53;;;;;;;7.72;2.67;;;;;;;;;;5092534;28;20469;-73
2023/08/03 13:39:18;;;;;;;7.63;2.55;;;;;;;;;;5076858;28;20099;-74
2023/08/03 13:41:43;;;;;;;8.27;2.20;;;;;;;;;;5096001;28;20385;-74
2023/08/03 13:44:09;;;;;;;8.95;2.40;;;;;;;;;;5077089;28;20115;-74
2023/08/03 13:46:34;;;;;;;4.95;2.33;;;;;;;;;;5078024;28;20393;-73
2023/08/03 13:48:59;;;;;;;5.50;2.22;;;;;;;;;;5061100;28;20031;-74
2023/08/03 13:51:25;;;;;;;7.00;2.10;;;;;;;;;;5095979;28;20012;-74
2023/08/03 13:53:54;;;;;;;5.75;2.38;;;;;;;;;;5096193;28;20020;-73
2023/08/03 13:56:20;;;;;;;5.65;2.45;;;;;;;;;;5077272;28;20016;-74
2023/08/03 13:58:45;;;;;;;8.18;1.90;;;;;;;;;;5077659;28;20020;-73
2023/08/03 14:01:10;;;;;;;4.80;2.28;;;;;;;;;;5095091;28;20077;-73
2023/08/03 14:03:35;;;;;;;3.85;2.72;;;;;;;;;;5076413;28;20024;-73
2023/08/03 14:06:01;;;;;;;4.78;2.70;;;;;;;;;;5075187;28;20025;-73
2023/08/03 14:08:26;;;;;;;2.90;1.90;;;;;;;;;;5086183;28;20462;-73
2023/08/03 14:10:51;;;;;;;6.72;2.28;;;;;;;;;;5063356;28;20027;-73
2023/08/03 14:13:16;;;;;;;3.35;2.13;;;;;;;;;;5040353;28;20402;-73
2023/08/03 14:15:42;;;;;;;6.95;2.10;;;;;;;;;;5075404;28;20029;-73
2023/08/03 14:18:07;;;;;;;8.40;4.50;;;;;;;;;;5040460;28;20038;-73
2023/08/03 14:20:32;;;;;;;6.97;2.17;;;;;;;;;;5056520;28;20033;-74
2023/08/03 14:22:58;;;;;;;6.30;2.47;;;;;;;;;;5057176;28;20020;-73
2023/08/03 14:25:23;;;;;;;6.93;1.98;;;;;;;;;;5075067;28;20027;-73
2023/08/03 14:27:52;;;;;;;3.83;2.00;;;;;;;;;;5074762;28;20393;-74
2023/08/03 14:30:17;;;;;;;4.03;2.00;;;;;;;;;;5057516;28;20020;-74
2023/08/03 14:32:43;;;;;;;4.55;1.98;;;;;;;;;;5073879;28;20031;-74
2023/08/03 14:35:08;;;;;;;6.90;2.05;;;;;;;;;;5076933;28;20024;-73
2023/08/03 14:37:33;;;;;;;5.95;1.83;;;;;;;;;;5094999;28;20519;-73
2023/08/03 14:39:59;;;;;;;6.97;2.05;;;;;;;;;;5071404;28;20474;-73